CPH weather

Copenhagen Kastrup Airport
Copenhagen, Capital Region, Denmark

Public forecast

Using degrees Celsius for public forecast. Weather courtesy of forecast.io.

Current aviation weather report (METAR) for Copenhagen Kastrup Airport

Retrieved 2020/04/04 23:20 UTC (13 minutes ago):

EKCH 042320Z AUTO 24008KT 9999 SCT092/// 04/02 Q1028 NOSIG

Aviation forecast (TAF) for Copenhagen Kastrup Airport

Retrieved 2020/04/04 18:20 UTC (5 hours ago):

TAF EKCH 041714Z 0418/0518 23008KT 9999 SCT030 BECMG 0511/0513 16012KT